sensor_id;sensor_type;location;lat;lon;timestamp;temperature;humidity
21085;DHT22;72320;50.082;20.000;2024-03-08T00:02:05;13.50;43.30
21085;DHT22;72320;50.082;20.000;2024-03-08T00:04:51;13.60;43.20
21085;DHT22;72320;50.082;20.000;2024-03-08T00:07:37;14.00;42.70
21085;DHT22;72320;50.082;20.000;2024-03-08T00:10:24;14.00;42.30
21085;DHT22;72320;50.082;20.000;2024-03-08T00:13:10;14.70;41.90
21085;DHT22;72320;50.082;20.000;2024-03-08T00:15:56;14.90;41.00
21085;DHT22;72320;50.082;20.000;2024-03-08T00:18:42;14.80;41.40
21085;DHT22;72320;50.082;20.000;2024-03-08T00:21:27;14.80;40.60
21085;DHT22;72320;50.082;20.000;2024-03-08T00:24:13;15.00;40.40
21085;DHT22;72320;50.082;20.000;2024-03-08T00:26:59;14.90;40.00
21085;DHT22;72320;50.082;20.000;2024-03-08T00:29:45;14.80;40.10
21085;DHT22;72320;50.082;20.000;2024-03-08T00:32:30;14.70;40.30
21085;DHT22;72320;50.082;20.000;2024-03-08T00:35:16;14.70;40.70
21085;DHT22;72320;50.082;20.000;2024-03-08T00:38:02;14.50;40.50
21085;DHT22;72320;50.082;20.000;2024-03-08T00:40:48;14.40;40.70
21085;DHT22;72320;50.082;20.000;2024-03-08T00:43:33;14.50;40.70
21085;DHT22;72320;50.082;20.000;2024-03-08T00:46:19;14.80;40.40
21085;DHT22;72320;50.082;20.000;2024-03-08T00:49:05;15.20;39.70
21085;DHT22;72320;50.082;20.000;2024-03-08T00:51:51;15.30;39.50
21085;DHT22;72320;50.082;20.000;2024-03-08T00:54:36;15.70;39.00
21085;DHT22;72320;50.082;20.000;2024-03-08T00:57:22;15.90;38.20
21085;DHT22;72320;50.082;20.000;2024-03-08T01:00:08;15.20;38.80
21085;DHT22;72320;50.082;20.000;2024-03-08T01:02:57;15.00;39.40
21085;DHT22;72320;50.082;20.000;2024-03-08T01:05:43;14.90;39.50
21085;DHT22;72320;50.082;20.000;2024-03-08T01:08:28;14.80;39.70
21085;DHT22;72320;50.082;20.000;2024-03-08T01:10:58;14.80;39.90
21085;DHT22;72320;50.082;20.000;2024-03-08T01:13:44;14.80;40.10
21085;DHT22;72320;50.082;20.000;2024-03-08T01:16:29;15.30;39.50
21085;DHT22;72320;50.082;20.000;2024-03-08T01:19:16;15.20;39.10
21085;DHT22;72320;50.082;20.000;2024-03-08T01:22:01;15.20;39.50
21085;DHT22;72320;50.082;20.000;2024-03-08T01:24:47;15.20;39.30
21085;DHT22;72320;50.082;20.000;2024-03-08T01:27:36;14.90;39.50
21085;DHT22;72320;50.082;20.000;2024-03-08T01:30:21;14.10;40.80
21085;DHT22;72320;50.082;20.000;2024-03-08T01:33:07;14.20;41.00
21085;DHT22;72320;50.082;20.000;2024-03-08T01:35:53;14.80;40.10
21085;DHT22;72320;50.082;20.000;2024-03-08T01:38:39;14.90;39.90
21085;DHT22;72320;50.082;20.000;2024-03-08T01:41:25;14.40;40.60
21085;DHT22;72320;50.082;20.000;2024-03-08T01:44:10;14.20;40.70
21085;DHT22;72320;50.082;20.000;2024-03-08T01:46:56;13.90;41.40
21085;DHT22;72320;50.082;20.000;2024-03-08T01:49:43;14.30;41.10
21085;DHT22;72320;50.082;20.000;2024-03-08T01:52:30;14.70;40.20
21085;DHT22;72320;50.082;20.000;2024-03-08T01:55:16;14.80;40.10
21085;DHT22;72320;50.082;20.000;2024-03-08T01:58:03;15.10;39.40
21085;DHT22;72320;50.082;20.000;2024-03-08T02:00:58;15.10;38.40
21085;DHT22;72320;50.082;20.000;2024-03-08T02:03:47;14.60;39.70
21085;DHT22;72320;50.082;20.000;2024-03-08T02:06:32;14.40;40.20
21085;DHT22;72320;50.082;20.000;2024-03-08T02:09:18;14.20;40.70
21085;DHT22;72320;50.082;20.000;2024-03-08T02:12:04;14.00;40.80
21085;DHT22;72320;50.082;20.000;2024-03-08T02:14:53;14.10;40.90
21085;DHT22;72320;50.082;20.000;2024-03-08T02:17:39;14.60;40.60
21085;DHT22;72320;50.082;20.000;2024-03-08T02:20:28;15.50;39.30
21085;DHT22;72320;50.082;20.000;2024-03-08T02:23:14;16.00;38.50
21085;DHT22;72320;50.082;20.000;2024-03-08T02:26:00;16.20;37.60
21085;DHT22;72320;50.082;20.000;2024-03-08T02:28:46;16.10;37.60
21085;DHT22;72320;50.082;20.000;2024-03-08T02:31:33;16.20;37.40
21085;DHT22;72320;50.082;20.000;2024-03-08T02:34:19;15.90;37.50
21085;DHT22;72320;50.082;20.000;2024-03-08T02:37:05;16.00;37.50
21085;DHT22;72320;50.082;20.000;2024-03-08T02:39:54;15.30;38.40
21085;DHT22;72320;50.082;20.000;2024-03-08T02:42:40;14.80;39.10
21085;DHT22;72320;50.082;20.000;2024-03-08T02:45:26;14.00;41.10
21085;DHT22;72320;50.082;20.000;2024-03-08T02:48:12;13.50;41.50
21085;DHT22;72320;50.082;20.000;2024-03-08T02:51:00;13.30;42.20
21085;DHT22;72320;50.082;20.000;2024-03-08T02:53:46;13.00;42.60
21085;DHT22;72320;50.082;20.000;2024-03-08T02:56:31;13.10;42.70
21085;DHT22;72320;50.082;20.000;2024-03-08T02:59:17;13.80;42.10
21085;DHT22;72320;50.082;20.000;2024-03-08T03:02:03;14.50;40.70
21085;DHT22;72320;50.082;20.000;2024-03-08T03:04:49;14.70;40.10
21085;DHT22;72320;50.082;20.000;2024-03-08T03:07:35;14.60;39.70
21085;DHT22;72320;50.082;20.000;2024-03-08T03:10:21;13.80;41.10
21085;DHT22;72320;50.082;20.000;2024-03-08T03:13:06;13.80;41.50
21085;DHT22;72320;50.082;20.000;2024-03-08T03:15:52;14.20;40.90
21085;DHT22;72320;50.082;20.000;2024-03-08T03:18:38;14.60;40.20
21085;DHT22;72320;50.082;20.000;2024-03-08T03:21:24;14.70;39.90
21085;DHT22;72320;50.082;20.000;2024-03-08T03:24:09;14.90;39.80
21085;DHT22;72320;50.082;20.000;2024-03-08T03:26:55;15.40;39.20
21085;DHT22;72320;50.082;20.000;2024-03-08T03:29:41;15.20;38.50
21085;DHT22;72320;50.082;20.000;2024-03-08T03:32:28;14.90;39.10
21085;DHT22;72320;50.082;20.000;2024-03-08T03:35:14;14.80;39.30
21085;DHT22;72320;50.082;20.000;2024-03-08T03:38:00;14.50;39.90
21085;DHT22;72320;50.082;20.000;2024-03-08T03:40:52;13.70;41.10
21085;DHT22;72320;50.082;20.000;2024-03-08T03:43:37;13.80;41.30
21085;DHT22;72320;50.082;20.000;2024-03-08T03:46:23;14.10;40.80
21085;DHT22;72320;50.082;20.000;2024-03-08T03:49:09;14.10;40.90
21085;DHT22;72320;50.082;20.000;2024-03-08T03:51:55;13.90;40.90
21085;DHT22;72320;50.082;20.000;2024-03-08T03:54:40;13.50;41.70
21085;DHT22;72320;50.082;20.000;2024-03-08T03:57:26;13.50;42.10
21085;DHT22;72320;50.082;20.000;2024-03-08T04:00:12;13.40;42.10
21085;DHT22;72320;50.082;20.000;2024-03-08T04:02:58;13.20;42.80
21085;DHT22;72320;50.082;20.000;2024-03-08T04:05:45;13.50;42.10
21085;DHT22;72320;50.082;20.000;2024-03-08T04:08:32;13.70;41.90
21085;DHT22;72320;50.082;20.000;2024-03-08T04:11:17;13.90;41.70
21085;DHT22;72320;50.082;20.000;2024-03-08T04:14:03;14.20;41.00
21085;DHT22;72320;50.082;20.000;2024-03-08T04:16:50;14.00;41.40
21085;DHT22;72320;50.082;20.000;2024-03-08T04:19:35;14.30;41.00
21085;DHT22;72320;50.082;20.000;2024-03-08T04:22:21;14.60;40.30
21085;DHT22;72320;50.082;20.000;2024-03-08T04:25:07;14.30;40.90
21085;DHT22;72320;50.082;20.000;2024-03-08T04:27:54;14.20;41.20
21085;DHT22;72320;50.082;20.000;2024-03-08T04:30:40;14.50;40.90
21085;DHT22;72320;50.082;20.000;2024-03-08T04:33:26;14.60;40.50
21085;DHT22;72320;50.082;20.000;2024-03-08T04:36:12;14.90;40.00
21085;DHT22;72320;50.082;20.000;2024-03-08T04:38:58;14.60;40.20
21085;DHT22;72320;50.082;20.000;2024-03-08T04:41:44;14.30;40.60
21085;DHT22;72320;50.082;20.000;2024-03-08T04:44:30;13.80;41.30
21085;DHT22;72320;50.082;20.000;2024-03-08T04:47:16;13.70;41.90
21085;DHT22;72320;50.082;20.000;2024-03-08T04:50:02;13.90;41.70
21085;DHT22;72320;50.082;20.000;2024-03-08T04:52:48;13.60;42.00
21085;DHT22;72320;50.082;20.000;2024-03-08T04:55:34;13.50;42.50
21085;DHT22;72320;50.082;20.000;2024-03-08T04:58:20;14.00;41.70
21085;DHT22;72320;50.082;20.000;2024-03-08T05:01:06;14.00;41.80
21085;DHT22;72320;50.082;20.000;2024-03-08T05:03:51;14.30;41.40
21085;DHT22;72320;50.082;20.000;2024-03-08T05:06:37;14.40;40.80
21085;DHT22;72320;50.082;20.000;2024-03-08T05:09:23;13.80;41.60
21085;DHT22;72320;50.082;20.000;2024-03-08T05:12:09;13.40;42.40
21085;DHT22;72320;50.082;20.000;2024-03-08T05:14:55;12.80;43.50
21085;DHT22;72320;50.082;20.000;2024-03-08T05:17:40;12.50;44.40
21085;DHT22;72320;50.082;20.000;2024-03-08T05:20:26;12.90;43.80
21085;DHT22;72320;50.082;20.000;2024-03-08T05:23:12;13.00;43.60
21085;DHT22;72320;50.082;20.000;2024-03-08T05:25:58;13.30;44.10
21085;DHT22;72320;50.082;20.000;2024-03-08T05:28:44;13.80;42.40
21085;DHT22;72320;50.082;20.000;2024-03-08T05:31:36;13.60;42.30
21085;DHT22;72320;50.082;20.000;2024-03-08T05:34:34;13.10;43.10
21085;DHT22;72320;50.082;20.000;2024-03-08T05:37:20;13.00;43.40
21085;DHT22;72320;50.082;20.000;2024-03-08T05:40:06;12.90;44.40
21085;DHT22;72320;50.082;20.000;2024-03-08T05:42:53;12.80;44.00
